Saipan, MP (96950)

11:06 AM ChST on August 05, 2015 (GMT +1000)
Saipan International | | Change Station
CLOSE
Current Station
Airport
Location: Saipan,
Elevation: 213 ft
Nearby Weather Stations

Elev 213 ft 15.12 °N, 145.73 °E | Updated 5 minutes ago

Overcast
Overcast
84 °F
Feels Like 96 °F
N
8
Wind Variable Wind from West

Today
High -- | Low -- °F
--% Chance of Precip.
Yesterday
High -- | Low -- °F
Precip. -- in
6:00 AM 6:45 PM
Waning Gibbous, 72% visible
Pressure 29.69 in
Visibility 10.0 miles
Clouds Mostly Cloudy 1500 ft
Overcast 1900 ft
Heat Index 96 °F
Dew Point 79 °F
Humidity 84%
Rainfall 0.00 in
Snow Depth Not available.
UV 5 out of 12
Pollen Not available.
Air Quality Not available.
Flu Activity Not available.
SPECI PGSN 050101Z 28007KT 10SM BKN015 OVC019 29/26 A2969 RMK AO2 $

More Conditions Fewer Conditions

Pressure 29.69 in
Visibility 10.0 miles
Clouds Mostly Cloudy 1500 ft
Overcast 1900 ft
Heat Index 96 °F
Dew Point 79 °F
Humidity 84%
Rainfall 0.00 in
Snow Depth Not available.
UV 5 out of 12
Pollen Not available.
Air Quality Not available.
Flu Activity Not available.
SPECI PGSN 050101Z 28007KT 10SM BKN015 OVC019 29/26 A2969 RMK AO2 $

More Conditions Fewer Conditions

10-Day Weather Forecast

×

Almanac

Astronomy

Aug. 05, 2015 Rise Set
Actual Time
Civil Twilight
Nautical Twilight
Astronomical Twilight
Moon
Length of Visible Light
Length of Day
Tomorrow will be .
, % of the Moon is Illuminated

Today's Extremes

State Highs State Lows

Community

WunderPhotos

Upload Photos

1,844,049 photos uploaded!

WunderBlogs® & News

Nearby

Air Quality

  Air Quality AQ Index Pollutant
Not available.

Snow Depth

Station Depth Elevation

Earthquake Activity

City Distance Mag. Time & Date
Minimum magnitude displayed is 2.5.

Coastal Water Temperatures

Place Temperature

Stations

Nearby Weather Stations

Station Location Temp. Windchill Dew Point Humidity Wind Precip. Elev Updated Type